Time;durP1;ratioP1;P1;durP2;ratioP2;P2;SDS_P1;SDS_P2;PMS_P1;PMS_P2;Temp;Humidity;BMP_temperature;BMP_pressure;BME280_temperature;BME280_humidity;BME280_pressure;Samples;Min_cycle;Max_cycle;Signal;HPM_P1;HPM_P2
2021/12/27 00:02:16;;;;;;;14.32;5.00;;;;;;;10.82;94.74;99506.63;7389521;19;20157;-67
2021/12/27 00:04:44;;;;;;;16.95;4.72;;;;;;;10.80;94.55;99495.47;7389494;19;20062;-67
2021/12/27 00:07:12;;;;;;;16.45;4.70;;;;;;;10.78;94.90;99492.22;7390276;19;20011;-66
2021/12/27 00:09:40;;;;;;;25.05;6.82;;;;;;;10.73;94.71;99486.69;7392725;19;20468;-67
2021/12/27 00:12:08;;;;;;;11.23;5.00;;;;;;;10.73;95.26;99484.88;7387884;19;20014;-66
2021/12/27 00:14:35;;;;;;;12.48;4.15;;;;;;;10.72;95.45;99485.06;7391626;19;20003;-68
2021/12/27 00:17:03;;;;;;;11.13;4.00;;;;;;;10.72;94.92;99479.81;7388290;19;20026;-67
2021/12/27 00:19:32;;;;;;;13.77;5.80;;;;;;;10.73;94.57;99477.00;7387235;19;20050;-66
2021/12/27 00:21:59;;;;;;;9.60;3.70;;;;;;;10.75;94.94;99474.19;7387769;19;20034;-68
2021/12/27 00:24:28;;;;;;;13.35;4.50;;;;;;;10.72;94.88;99467.47;7387975;19;20006;-67
2021/12/27 00:26:56;;;;;;;168.18;9.98;;;;;;;10.73;95.30;99457.75;7386332;19;20006;-67
2021/12/27 00:29:23;;;;;;;10.60;3.75;;;;;;;10.71;95.16;99455.34;7389914;19;20042;-66
2021/12/27 00:31:51;;;;;;;12.32;3.88;;;;;;;10.70;95.61;99451.06;7388853;19;20372;-66
2021/12/27 00:34:18;;;;;;;10.55;3.83;;;;;;;10.69;94.90;99438.91;7387092;19;20010;-67
2021/12/27 00:36:45;;;;;;;11.85;4.13;;;;;;;10.66;95.17;99447.19;7393563;19;20013;-66
2021/12/27 00:39:13;;;;;;;8.68;3.45;;;;;;;10.65;95.19;99442.13;7387669;19;20011;-67
2021/12/27 00:41:40;;;;;;;12.98;3.72;;;;;;;10.64;95.35;99443.09;7391235;19;20026;-67
2021/12/27 00:44:08;;;;;;;12.68;4.07;;;;;;;10.64;95.65;99445.75;7390063;19;20026;-66
2021/12/27 00:46:35;;;;;;;11.85;4.28;;;;;;;10.63;95.83;99434.41;7386367;19;20026;-65
2021/12/27 00:49:03;;;;;;;10.68;3.88;;;;;;;10.68;96.16;99426.75;7388623;19;20007;-67
2021/12/27 00:51:30;;;;;;;11.88;3.45;;;;;;;10.67;95.66;99427.75;7386787;19;20375;-66
2021/12/27 00:53:58;;;;;;;16.83;4.40;;;;;;;10.64;95.23;99420.25;7391328;19;20218;-66
2021/12/27 00:56:25;;;;;;;10.05;3.42;;;;;;;10.62;95.38;99409.09;7386421;19;20459;-67
2021/12/27 00:58:53;;;;;;;12.15;3.75;;;;;;;10.62;95.77;99416.97;7389406;19;20015;-68
2021/12/27 01:01:20;;;;;;;11.73;4.13;;;;;;;10.62;95.67;99418.78;7391707;19;20015;-67
2021/12/27 01:03:49;;;;;;;11.40;3.80;;;;;;;10.64;95.72;99409.72;7387727;19;20037;-67
2021/12/27 01:06:17;;;;;;;12.00;4.20;;;;;;;10.65;95.77;99415.81;7388080;19;20011;-68
2021/12/27 01:08:44;;;;;;;8.63;2.88;;;;;;;10.65;96.22;99415.81;7388127;19;20006;-67
2021/12/27 01:11:23;;;;;;;11.52;4.05;;;;;;;10.64;95.96;99409.72;7392281;19;20070;-67
2021/12/27 01:16:23;;;;;;;;;;;;;;;10.67;96.33;99401.44;7387389;19;20030;-67
2021/12/27 01:18:51;;;;;;;9.57;2.83;;;;;;;10.60;95.93;99394.53;7388303;19;20237;-67
2021/12/27 01:21:20;;;;;;;11.10;3.03;;;;;;;10.60;96.38;99391.88;7389226;19;20017;-66
2021/12/27 01:23:53;;;;;;;7.68;2.33;;;;;;;10.60;96.45;99382.19;7389202;19;20025;-67
2021/12/27 01:26:25;;;;;;;9.95;3.05;;;;;;;10.61;96.79;99383.81;7386550;19;20086;-66
2021/12/27 01:28:56;;;;;;;13.38;3.50;;;;;;;10.65;96.96;99381.63;7391819;19;20308;-68
2021/12/27 01:31:24;;;;;;;10.75;2.67;;;;;;;10.65;96.56;99382.44;7393997;19;20357;-67
2021/12/27 01:33:52;;;;;;;10.10;3.30;;;;;;;10.67;96.32;99382.22;7395907;19;20029;-67
2021/12/27 01:36:20;;;;;;;60.40;5.82;;;;;;;10.67;96.24;99377.78;7393430;19;20174;-67
2021/12/27 01:38:48;;;;;;;11.93;3.05;;;;;;;10.69;96.33;99380.22;7391770;19;20034;-68
2021/12/27 01:41:17;;;;;;;7.47;2.25;;;;;;;10.68;96.10;99373.34;7392645;19;20010;-67
2021/12/27 01:43:45;;;;;;;10.95;2.42;;;;;;;10.67;96.10;99376.97;7397590;19;20011;-66
2021/12/27 01:46:15;;;;;;;26.08;10.52;;;;;;;10.67;96.00;99372.53;7393692;19;20006;-67
2021/12/27 01:48:54;;;;;;;12.23;3.05;;;;;;;10.69;96.31;99362.63;7390633;19;20013;-67
2021/12/27 01:51:24;;;;;;;6.85;2.17;;;;;;;10.70;96.03;99364.25;7396401;19;20357;-67
2021/12/27 01:53:52;;;;;;;85.35;6.43;;;;;;;10.71;96.05;99365.09;7399018;19;20024;-68
2021/12/27 01:56:20;;;;;;;9.15;2.60;;;;;;;10.71;96.67;99360.63;7394216;19;20006;-67
2021/12/27 01:58:50;;;;;;;7.90;2.67;;;;;;;10.70;96.48;99366.09;7394181;19;20014;-67
2021/12/27 02:01:19;;;;;;;10.40;2.70;;;;;;;10.69;96.06;99365.25;7394467;19;20034;-68
2021/12/27 02:03:50;;;;;;;9.65;2.67;;;;;;;10.67;95.69;99366.44;7395871;19;20031;-67
2021/12/27 02:06:19;;;;;;;11.23;2.90;;;;;;;10.65;96.15;99371.09;7394559;19;20011;-67
2021/12/27 02:08:47;;;;;;;8.35;2.63;;;;;;;10.65;96.15;99371.09;7391363;19;20670;-68
2021/12/27 02:11:17;;;;;;;6.07;2.47;;;;;;;10.63;96.34;99357.31;7392681;19;20018;-67
2021/12/27 02:13:46;;;;;;;11.38;2.75;;;;;;;10.64;96.67;99356.31;7392571;19;20335;-67
2021/12/27 02:16:19;;;;;;;9.27;2.35;;;;;;;10.67;96.82;99345.41;7392038;19;20013;-66
2021/12/27 02:18:48;;;;;;;8.70;2.28;;;;;;;10.66;96.44;99346.44;7392992;19;20094;-67
2021/12/27 02:21:16;;;;;;;7.50;2.63;;;;;;;10.66;96.58;99346.44;7391706;19;20011;-68
2021/12/27 02:23:44;;;;;;;4.93;2.05;;;;;;;10.67;96.87;99338.31;7391546;19;20043;-67
2021/12/27 02:26:12;;;;;;;7.22;2.13;;;;;;;10.69;96.96;99343.41;7393171;19;20018;-68
2021/12/27 02:28:39;;;;;;;7.25;2.08;;;;;;;10.67;96.65;99334.88;7389055;19;20010;-67
2021/12/27 02:31:07;;;;;;;8.98;2.03;;;;;;;10.63;96.67;99331.81;7391576;19;20361;-67
2021/12/27 02:33:37;;;;;;;10.40;2.25;;;;;;;10.64;96.84;99337.91;7395416;19;20494;-66
2021/12/27 02:36:12;;;;;;;6.05;1.58;;;;;;;10.63;96.70;99323.94;7390095;19;20053;-66
2021/12/27 02:38:42;;;;;;;15.63;5.57;;;;;;;10.64;96.81;99314.22;7389647;19;20007;-67
2021/12/27 02:41:10;;;;;;;10.88;2.10;;;;;;;10.66;96.79;99305.16;7393065;19;20471;-67
2021/12/27 02:43:42;;;;;;;10.15;2.50;;;;;;;10.67;96.75;99298.88;7390352;19;20003;-67
2021/12/27 02:46:12;;;;;;;8.80;1.92;;;;;;;10.65;96.53;99305.34;7392426;19;20014;-67
2021/12/27 02:48:46;;;;;;;10.77;2.78;;;;;;;10.62;96.46;99293.38;7388780;19;20030;-67
2021/12/27 02:51:17;;;;;;;8.30;2.33;;;;;;;10.64;96.63;99301.91;7393704;19;20022;-66
2021/12/27 02:53:46;;;;;;;7.97;1.98;;;;;;;10.66;96.28;99305.16;7392109;19;20013;-66
2021/12/27 02:56:14;;;;;;;8.05;2.00;;;;;;;10.67;96.44;99301.50;7392083;19;20215;-68
2021/12/27 02:58:42;;;;;;;8.27;2.30;;;;;;;10.67;96.20;99301.50;7393890;19;20010;-67
2021/12/27 03:01:15;;;;;;;9.25;2.30;;;;;;;10.68;96.30;99302.31;7390373;19;20007;-67
2021/12/27 03:03:42;;;;;;;;;;;;;;;10.66;96.20;99288.56;7392925;19;20010;-67
2021/12/27 03:06:10;;;;;;;7.10;2.20;;;;;;;10.66;96.47;99285.94;7390175;19;19919;-66
2021/12/27 03:08:40;;;;;;;7.15;2.53;;;;;;;10.66;96.78;99292.00;7388401;19;20007;-66
2021/12/27 03:11:10;;;;;;;9.40;2.30;;;;;;;10.68;96.71;99283.91;7395879;19;20007;-67
2021/12/27 03:13:46;;;;;;;19.05;5.53;;;;;;;10.69;97.00;99286.34;7391471;19;20010;-67
2021/12/27 03:16:17;;;;;;;14.32;2.35;;;;;;;10.71;96.60;99286.16;7393157;19;20010;-67
2021/12/27 03:18:48;;;;;;;11.18;2.75;;;;;;;10.71;96.73;99289.63;7392614;19;20169;-67
2021/12/27 03:21:16;;;;;;;12.57;2.80;;;;;;;10.73;96.54;99281.50;7392442;19;20511;-67
2021/12/27 03:23:45;;;;;;;10.68;2.10;;;;;;;10.76;96.64;99290.84;7389854;19;20432;-67
2021/12/27 03:26:13;;;;;;;7.50;2.10;;;;;;;10.74;96.32;99293.66;7391189;19;20010;-69
2021/12/27 03:28:41;;;;;;;9.75;2.53;;;;;;;10.74;96.21;99293.66;7389737;19;20014;-68
2021/12/27 03:31:09;;;;;;;10.98;3.00;;;;;;;10.77;96.71;99292.47;7389520;19;20010;-66
2021/12/27 03:33:38;;;;;;;10.98;2.72;;;;;;;10.79;96.80;99286.00;7394671;19;20014;-67
2021/12/27 03:36:08;;;;;;;10.80;3.28;;;;;;;10.77;96.08;99281.97;7390379;19;20010;-67
2021/12/27 03:38:44;;;;;;;10.90;2.78;;;;;;;10.75;95.78;99282.16;7387250;19;20015;-67
2021/12/27 03:41:19;;;;;;;10.32;2.35;;;;;;;10.77;95.78;99284.59;7391925;19;20602;-67
2021/12/27 03:43:46;;;;;;;12.57;2.90;;;;;;;10.75;95.99;99278.69;7391837;19;20018;-66
2021/12/27 03:46:15;;;;;;;9.77;2.60;;;;;;;10.72;96.15;99272.00;7390777;19;20419;-67
2021/12/27 03:48:43;;;;;;;14.80;4.25;;;;;;;10.75;96.12;99273.44;7387606;19;20360;-67
2021/12/27 03:51:10;;;;;;;10.30;2.65;;;;;;;10.75;95.89;99268.16;7392458;19;20333;-67
2021/12/27 03:53:38;;;;;;;13.02;2.92;;;;;;;10.77;96.03;99268.81;7391728;19;20010;-68
2021/12/27 03:56:08;;;;;;;12.75;3.42;;;;;;;10.74;95.91;99267.34;7388807;19;20503;-67
2021/12/27 04:03:38;;;;;;;18.40;4.63;;;;;;;10.76;95.99;99256.66;7391859;19;20021;-68
2021/12/27 04:06:05;;;;;;;30.95;9.48;;;;;;;10.73;95.73;99248.13;7392996;19;20079;-67
2021/12/27 04:08:33;;;;;;;15.75;3.80;;;;;;;10.75;95.76;99253.19;7392184;19;20006;-66
2021/12/27 04:11:00;;;;;;;13.98;3.35;;;;;;;10.76;95.59;99251.38;7391650;19;20019;-67
2021/12/27 04:13:28;;;;;;;18.70;3.08;;;;;;;10.72;95.53;99250.94;7387708;19;20018;-67
2021/12/27 04:15:56;;;;;;;12.23;2.35;;;;;;;10.75;96.40;99252.38;7388368;19;20030;-69
2021/12/27 04:18:24;;;;;;;7.10;2.08;;;;;;;10.75;95.86;99247.94;7387708;19;20027;-67
2021/12/27 04:20:51;;;;;;;10.13;2.75;;;;;;;10.76;95.95;99246.13;7392261;19;20490;-66
2021/12/27 04:23:19;;;;;;;105.05;8.00;;;;;;;10.75;95.93;99244.50;7387243;19;20560;-66
2021/12/27 04:25:46;;;;;;;10.02;1.90;;;;;;;10.78;96.44;99237.03;7389009;19;20011;-67
2021/12/27 04:28:15;;;;;;;8.85;1.63;;;;;;;10.77;96.15;99237.25;7387078;19;20015;-67
2021/12/27 04:30:43;;;;;;;17.23;2.42;;;;;;;10.76;95.99;99238.25;7387418;19;20010;-67
2021/12/27 04:33:11;;;;;;;9.10;2.28;;;;;;;10.76;95.75;99231.16;7391347;19;20026;-66
2021/12/27 04:35:38;;;;;;;7.32;1.60;;;;;;;10.76;95.79;99236.41;7387980;19;20037;-68
2021/12/27 04:38:10;;;;;;;8.77;1.70;;;;;;;10.73;95.81;99231.53;7392313;19;20018;-66
2021/12/27 04:40:40;;;;;;;37.27;5.30;;;;;;;10.73;95.35;99226.28;7387657;19;20019;-66
2021/12/27 04:43:11;;;;;;;12.38;2.30;;;;;;;10.75;95.69;99220.81;7387033;19;20486;-66
2021/12/27 04:45:39;;;;;;;11.30;1.90;;;;;;;10.73;95.51;99221.81;7392715;19;20022;-67
2021/12/27 04:48:08;;;;;;;10.63;2.10;;;;;;;10.68;95.65;99216.34;7386371;19;20021;-67
2021/12/27 04:50:36;;;;;;;14.55;3.00;;;;;;;10.66;95.65;99209.66;7390510;19;20053;-67
2021/12/27 04:53:08;;;;;;;12.00;2.50;;;;;;;10.68;95.85;99210.25;7387602;19;20018;-66
2021/12/27 04:55:36;;;;;;;8.23;1.98;;;;;;;10.67;95.82;99213.88;7386959;19;20287;-66
2021/12/27 04:58:08;;;;;;;8.57;2.92;;;;;;;10.61;95.91;99204.97;7388122;19;20014;-66
2021/12/27 05:00:37;;;;;;;9.13;2.20;;;;;;;10.60;96.08;99197.28;7391156;19;20010;-67
2021/12/27 05:03:07;;;;;;;7.07;1.80;;;;;;;10.59;96.22;99196.47;7389402;19;20131;-67
2021/12/27 05:05:42;;;;;;;6.80;1.75;;;;;;;10.57;96.05;99189.75;7400289;19;20033;-68
2021/12/27 05:08:10;;;;;;;9.25;2.38;;;;;;;10.58;96.12;99186.13;7399750;19;20356;-67
2021/12/27 05:10:38;;;;;;;8.90;1.80;;;;;;;10.53;96.26;99176.19;7403116;19;20419;-67
2021/12/27 05:13:06;;;;;;;12.80;1.98;;;;;;;10.51;96.31;99175.59;7399145;19;20038;-66
2021/12/27 05:15:33;;;;;;;15.80;4.85;;;;;;;10.49;96.51;99171.50;7398908;19;20038;-67
2021/12/27 05:18:00;;;;;;;12.30;3.03;;;;;;;10.48;96.74;99159.38;7397873;19;20038;-66
2021/12/27 05:20:28;;;;;;;8.73;2.22;;;;;;;10.48;96.85;99164.63;7397651;19;20495;-67
2021/12/27 05:22:55;;;;;;;13.35;2.90;;;;;;;10.46;96.61;99156.94;7399948;19;20265;-67
2021/12/27 05:25:22;;;;;;;9.70;2.38;;;;;;;10.46;96.82;99146.44;7402694;19;20015;-67
2021/12/27 05:27:50;;;;;;;10.23;2.83;;;;;;;10.48;96.61;99146.22;7397431;19;20029;-66
2021/12/27 05:30:18;;;;;;;151.07;10.00;;;;;;;10.51;96.82;99135.31;7398635;19;20471;-66
2021/12/27 05:32:47;;;;;;;8.25;2.58;;;;;;;10.48;97.02;99130.44;7400545;19;20027;-66
2021/12/27 05:35:15;;;;;;;10.57;3.05;;;;;;;10.48;96.92;99127.81;7403091;19;20020;-67
2021/12/27 05:37:44;;;;;;;11.52;2.72;;;;;;;10.48;96.76;99126.00;7397916;19;20013;-67
2021/12/27 05:40:15;;;;;;;14.90;2.65;;;;;;;10.49;96.67;99122.38;7397736;19;20349;-68
2021/12/27 05:42:42;;;;;;;10.60;2.35;;;;;;;10.47;96.64;99115.66;7399798;19;20456;-67
2021/12/27 05:45:10;;;;;;;14.13;1.98;;;;;;;10.47;96.60;99105.16;7399598;19;20014;-66
2021/12/27 05:47:37;;;;;;;9.45;2.78;;;;;;;10.47;96.67;99092.00;7397643;19;20478;-67
2021/12/27 05:50:06;;;;;;;7.35;2.33;;;;;;;10.49;96.86;99080.28;7403379;19;20018;-66
2021/12/27 05:52:34;;;;;;;9.38;1.88;;;;;;;10.51;96.75;99088.81;7400699;19;20157;-67
2021/12/27 05:55:02;;;;;;;15.32;4.43;;;;;;;10.50;96.96;99083.75;7401582;19;20006;-67
2021/12/27 05:57:29;;;;;;;9.35;1.85;;;;;;;10.52;96.93;99086.97;7398129;19;20026;-67
2021/12/27 05:59:57;;;;;;;6.78;2.03;;;;;;;10.53;96.75;99086.78;7401917;19;20007;-67
2021/12/27 06:02:24;;;;;;;14.02;5.10;;;;;;;10.52;96.63;99084.34;7402137;19;20143;-68
2021/12/27 06:04:52;;;;;;;7.43;2.60;;;;;;;10.51;96.78;99078.28;7400268;19;20467;-67
2021/12/27 06:07:19;;;;;;;7.88;2.47;;;;;;;10.52;96.63;99077.25;7397167;19;20036;-67
2021/12/27 06:09:47;;;;;;;8.35;3.00;;;;;;;10.52;96.44;99082.53;7394975;19;20010;-68
2021/12/27 06:12:14;;;;;;;12.45;3.58;;;;;;;10.53;96.91;99075.44;7400806;19;20019;-66
2021/12/27 06:14:41;;;;;;;12.25;3.40;;;;;;;10.51;96.92;99064.31;7396720;19;20007;-68
2021/12/27 06:17:09;;;;;;;8.07;2.88;;;;;;;10.52;97.03;99064.13;7391464;19;20011;-67
2021/12/27 06:19:36;;;;;;;15.98;4.93;;;;;;;10.56;97.12;99064.56;7393563;19;20014;-67
2021/12/27 06:22:04;;;;;;;8.50;2.47;;;;;;;10.57;97.27;99059.06;7394212;19;20021;-67
2021/12/27 06:24:31;;;;;;;10.82;3.25;;;;;;;10.57;96.95;99051.19;7391797;19;20010;-67
2021/12/27 06:26:59;;;;;;;8.63;2.75;;;;;;;10.61;97.28;99057.69;7389752;19;20021;-67
2021/12/27 06:29:26;;;;;;;11.18;3.33;;;;;;;10.59;97.15;99043.09;7389619;19;20015;-66
2021/12/27 06:31:54;;;;;;;10.73;2.67;;;;;;;10.56;97.10;99043.50;7390235;19;20025;-66
2021/12/27 06:34:21;;;;;;;6.50;2.90;;;;;;;10.51;96.85;99028.34;7389052;19;20014;-66
2021/12/27 06:36:49;;;;;;;12.85;3.83;;;;;;;10.51;97.00;99025.69;7391608;19;20015;-67
2021/12/27 06:39:16;;;;;;;7.97;2.63;;;;;;;10.51;97.26;99033.59;7389657;19;20471;-66
2021/12/27 06:41:43;;;;;;;10.25;2.55;;;;;;;10.53;97.29;99028.94;7394971;19;20025;-67
2021/12/27 06:44:11;;;;;;;9.05;3.40;;;;;;;10.55;97.73;99019.03;7391805;19;20352;-67
2021/12/27 06:46:39;;;;;;;10.68;3.58;;;;;;;10.54;97.77;99021.84;7391041;19;20025;-67
2021/12/27 06:49:06;;;;;;;8.38;3.17;;;;;;;10.54;97.43;99027.13;7390695;19;20007;-67
2021/12/27 06:51:33;;;;;;;9.13;3.00;;;;;;;10.56;97.41;99020.66;7390975;19;20014;-67
2021/12/27 06:54:01;;;;;;;8.13;3.42;;;;;;;10.59;97.66;99007.09;7388673;19;20030;-66
2021/12/27 06:56:30;;;;;;;8.55;3.05;;;;;;;10.59;97.23;99008.91;7390443;19;20002;-67
2021/12/27 06:58:58;;;;;;;33.22;6.47;;;;;;;10.62;97.58;99011.16;7391372;19;20006;-67
2021/12/27 07:01:26;;;;;;;11.23;4.97;;;;;;;10.63;97.97;99002.25;7390638;19;20369;-67
2021/12/27 07:03:54;;;;;;;10.20;4.22;;;;;;;10.63;97.48;98992.53;7391975;19;20014;-67
2021/12/27 07:06:22;;;;;;;71.72;6.05;;;;;;;10.65;97.49;98994.97;7394168;19;20467;-68
2021/12/27 07:08:49;;;;;;;16.20;6.88;;;;;;;10.70;97.91;98988.13;7389638;19;20032;-68
2021/12/27 07:11:16;;;;;;;8.23;4.32;;;;;;;10.71;97.55;98986.31;7393518;19;20018;-66
2021/12/27 07:13:45;;;;;;;14.85;4.88;;;;;;;10.68;97.34;98990.13;7393803;19;20010;-67
2021/12/27 07:16:12;;;;;;;20.23;6.95;;;;;;;10.72;97.81;98986.09;7392356;19;20007;-68
2021/12/27 07:18:40;;;;;;;9.95;4.07;;;;;;;10.75;97.64;98984.88;7396458;19;20074;-67
2021/12/27 07:21:07;;;;;;;10.52;4.38;;;;;;;10.74;97.21;98972.75;7394884;19;20271;-66
2021/12/27 07:23:35;;;;;;;10.73;4.43;;;;;;;10.73;97.11;98981.63;7393108;19;20006;-67
2021/12/27 07:26:02;;;;;;;11.70;5.60;;;;;;;10.70;97.38;98974.97;7392854;19;20006;-67
2021/12/27 07:28:30;;;;;;;10.68;5.07;;;;;;;10.77;97.10;98976.81;7389312;19;20003;-67
2021/12/27 07:30:57;;;;;;;13.20;5.40;;;;;;;10.77;97.09;98976.81;7391244;19;20015;-68
2021/12/27 07:33:24;;;;;;;13.25;6.30;;;;;;;10.79;97.05;98972.94;7391061;19;20002;-67
2021/12/27 07:35:52;;;;;;;13.82;6.25;;;;;;;10.79;97.08;98970.31;7392171;19;20024;-67
2021/12/27 07:38:19;;;;;;;15.43;5.22;;;;;;;10.80;96.87;98961.44;7387499;19;20015;-67
2021/12/27 07:40:47;;;;;;;30.77;7.82;;;;;;;10.82;96.87;98951.50;7389344;19;20006;-67
2021/12/27 07:43:14;;;;;;;15.48;5.38;;;;;;;10.86;96.86;98944.03;7387220;19;20006;-68
2021/12/27 07:45:42;;;;;;;13.02;5.63;;;;;;;10.86;96.55;98949.28;7393735;19;20467;-67
2021/12/27 07:48:10;;;;;;;18.13;8.18;;;;;;;10.89;96.25;98959.41;7392816;19;20018;-67
2021/12/27 07:50:41;;;;;;;11.93;6.50;;;;;;;10.89;96.72;98960.22;7392449;19;20023;-67
2021/12/27 07:53:09;;;;;;;14.05;5.72;;;;;;;10.90;96.65;98961.03;7389558;19;20014;-68
2021/12/27 07:55:36;;;;;;;12.95;6.03;;;;;;;10.90;96.70;98961.03;7389862;19;20375;-66
2021/12/27 07:58:03;;;;;;;24.67;11.10;;;;;;;10.93;96.48;98955.34;7392105;19;20491;-67
2021/12/27 08:00:31;;;;;;;12.82;6.25;;;;;;;10.91;96.72;98952.94;7389927;19;20011;-68
2021/12/27 08:02:58;;;;;;;12.98;5.80;;;;;;;10.91;96.23;98957.41;7389862;19;20006;-67
2021/12/27 08:05:27;;;;;;;15.18;7.40;;;;;;;10.92;96.55;98953.75;7390016;19;20017;-67
2021/12/27 08:07:54;;;;;;;13.98;6.25;;;;;;;10.93;96.41;98958.78;7388819;19;20031;-66
2021/12/27 08:10:21;;;;;;;15.43;6.25;;;;;;;10.93;96.36;98963.25;7389825;19;20044;-68
2021/12/27 08:12:49;;;;;;;170.27;13.70;;;;;;;10.94;96.56;98967.50;7393474;19;20038;-67
2021/12/27 08:15:17;;;;;;;19.33;8.00;;;;;;;10.97;96.70;98964.50;7391138;19;20018;-67
2021/12/27 08:17:44;;;;;;;16.50;6.97;;;;;;;10.95;96.44;98956.78;7393099;19;20511;-66
2021/12/27 08:20:12;;;;;;;15.18;4.82;;;;;;;10.99;96.53;98962.44;7387725;19;20022;-69
2021/12/27 08:22:39;;;;;;;16.52;7.75;;;;;;;11.01;96.29;98963.06;7387689;19;20017;-67
2021/12/27 08:25:07;;;;;;;14.32;6.03;;;;;;;10.99;96.26;98963.25;7387736;19;20027;-66
2021/12/27 08:27:36;;;;;;;12.25;5.88;;;;;;;11.01;96.08;98963.06;7388976;19;20042;-67
2021/12/27 08:30:06;;;;;;;17.65;7.10;;;;;;;11.00;95.91;98961.44;7387388;19;20015;-67
2021/12/27 08:32:36;;;;;;;12.75;5.60;;;;;;;10.99;96.17;98962.44;7388668;19;20025;-68
2021/12/27 08:35:07;;;;;;;12.60;5.50;;;;;;;11.01;96.08;98965.69;7389157;19;20058;-67
2021/12/27 08:37:35;;;;;;;14.57;6.00;;;;;;;11.01;95.77;98968.34;7389810;19;20405;-67
2021/12/27 08:40:05;;;;;;;16.23;7.95;;;;;;;11.00;95.96;98967.53;7390468;19;20014;-67
2021/12/27 08:42:36;;;;;;;13.95;6.38;;;;;;;11.03;95.88;98964.47;7389346;19;20015;-66
2021/12/27 08:45:04;;;;;;;14.13;6.20;;;;;;;11.02;95.70;98962.06;7390301;19;20010;-68
2021/12/27 08:47:32;;;;;;;78.55;20.40;;;;;;;11.08;96.40;98963.88;7392389;19;20724;-68
2021/12/27 08:50:00;;;;;;;15.05;7.32;;;;;;;11.10;96.16;98962.66;7391593;19;20002;-67
2021/12/27 08:52:31;;;;;;;12.82;6.22;;;;;;;11.08;95.70;98961.22;7390963;19;20082;-67
2021/12/27 08:55:03;;;;;;;13.95;6.15;;;;;;;11.09;95.74;98955.78;7391617;19;20002;-67
2021/12/27 08:57:32;;;;;;;12.00;6.00;;;;;;;11.12;95.57;98957.22;7393354;19;20123;-68
2021/12/27 09:00:00;;;;;;;12.52;5.40;;;;;;;11.12;95.61;98954.56;7388331;19;20002;-67
2021/12/27 09:02:28;;;;;;;14.48;6.28;;;;;;;11.12;95.49;98954.56;7390368;19;20006;-67
2021/12/27 09:04:56;;;;;;;11.25;5.45;;;;;;;11.18;95.17;98947.66;7390652;19;20023;-67
2021/12/27 09:07:23;;;;;;;10.75;5.85;;;;;;;11.18;95.20;98951.09;7390205;19;20023;-67
2021/12/27 09:09:51;;;;;;;12.10;5.85;;;;;;;11.19;95.26;98942.19;7388913;19;20015;-66
2021/12/27 09:12:18;;;;;;;26.77;7.22;;;;;;;11.23;95.53;98945.22;7389724;19;20472;-66
2021/12/27 09:14:46;;;;;;;11.40;6.13;;;;;;;11.22;95.05;98957.59;7389744;19;20006;-66
2021/12/27 09:17:13;;;;;;;10.27;4.93;;;;;;;11.23;94.97;98942.59;7389255;19;20007;-66
2021/12/27 09:19:42;;;;;;;11.88;4.25;;;;;;;11.24;94.97;98941.59;7389878;19;20130;-67
2021/12/27 09:22:13;;;;;;;11.27;5.55;;;;;;;11.26;94.98;98932.50;7390729;19;20018;-67
2021/12/27 09:24:41;;;;;;;12.43;5.93;;;;;;;11.27;95.53;98931.47;7387404;19;20018;-66
2021/12/27 09:27:09;;;;;;;8.65;3.58;;;;;;;11.28;95.30;98919.09;7386190;19;20705;-67
2021/12/27 09:29:37;;;;;;;11.30;5.13;;;;;;;11.30;95.36;98922.34;7384841;19;20014;-66
2021/12/27 09:32:05;;;;;;;9.43;3.85;;;;;;;11.31;95.34;98906.34;7387990;19;20010;-67
2021/12/27 09:34:32;;;;;;;8.40;3.15;;;;;;;11.33;95.32;98911.41;7386614;19;20346;-67
2021/12/27 09:37:00;;;;;;;16.00;5.57;;;;;;;11.35;95.19;98901.47;7387978;19;20006;-67
2021/12/27 09:39:27;;;;;;;8.95;4.65;;;;;;;11.33;95.41;98904.31;7389390;19;20592;-66
2021/12/27 09:41:55;;;;;;;8.20;3.72;;;;;;;11.31;95.65;98898.47;7390445;19;20142;-67
2021/12/27 09:44:22;;;;;;;66.10;10.20;;;;;;;11.33;95.29;98898.22;7390408;19;20015;-67
2021/12/27 09:46:51;;;;;;;12.48;6.88;;;;;;;11.33;96.09;98899.03;7390589;19;20017;-67
2021/12/27 09:49:20;;;;;;;9.63;5.18;;;;;;;11.36;95.96;98889.94;7387273;19;20018;-68
2021/12/27 09:51:49;;;;;;;7.22;4.70;;;;;;;11.37;95.98;98888.94;7393315;19;20006;-67
2021/12/27 09:54:16;;;;;;;13.85;5.05;;;;;;;11.36;96.22;98884.66;7398077;19;20009;-67
2021/12/27 09:56:45;;;;;;;11.63;3.95;;;;;;;11.37;96.42;98884.47;7396276;19;20497;-68
2021/12/27 09:59:12;;;;;;;10.48;4.30;;;;;;;11.38;96.22;98887.88;7396953;19;20023;-70
2021/12/27 10:01:40;;;;;;;439.55;24.98;;;;;;;11.39;96.38;98877.16;7394215;19;20035;-67
2021/12/27 10:04:09;;;;;;;13.77;6.45;;;;;;;11.42;97.16;98883.84;7395264;19;20011;-66
2021/12/27 10:06:36;;;;;;;14.27;4.70;;;;;;;11.42;96.89;98881.22;7396830;19;20015;-66
2021/12/27 10:09:08;;;;;;;8.77;4.45;;;;;;;11.40;96.73;98872.72;7394695;19;20010;-66
2021/12/27 10:11:40;;;;;;;7.32;3.50;;;;;;;11.44;96.76;98874.72;7395184;19;20013;-67
2021/12/27 10:14:10;;;;;;;7.82;3.65;;;;;;;11.44;97.16;98869.44;7394508;19;20010;-66
2021/12/27 10:16:40;;;;;;;9.48;4.95;;;;;;;11.47;96.81;98876.97;7394591;19;20159;-67
2021/12/27 10:19:11;;;;;;;14.27;4.13;;;;;;;11.48;97.04;98862.75;7396445;19;20463;-67
2021/12/27 10:21:44;;;;;;;14.77;4.32;;;;;;;11.46;97.10;98861.34;7393956;19;20685;-66
2021/12/27 10:24:19;;;;;;;11.60;4.38;;;;;;;11.46;97.24;98864.00;7395212;19;20840;-67
2021/12/27 10:26:49;;;;;;;7.28;3.70;;;;;;;11.46;97.17;98861.34;7393181;19;20014;-66
2021/12/27 10:29:23;;;;;;;9.20;4.15;;;;;;;11.47;97.38;98849.81;7392892;19;20015;-67
2021/12/27 10:31:52;;;;;;;5.93;2.28;;;;;;;11.50;97.32;98852.81;7393993;19;20024;-67
2021/12/27 10:34:22;;;;;;;6.65;2.60;;;;;;;11.50;97.10;98846.75;7390911;19;20015;-67
2021/12/27 10:36:56;;;;;;;14.65;5.15;;;;;;;11.48;97.54;98854.84;7390145;19;20018;-67
2021/12/27 10:39:28;;;;;;;7.18;2.90;;;;;;;11.50;97.77;98850.19;7392391;19;20783;-68
2021/12/27 10:42:07;;;;;;;5.35;2.83;;;;;;;11.53;97.73;98843.69;7395513;19;20015;-67
2021/12/27 10:44:36;;;;;;;14.68;5.35;;;;;;;11.48;97.80;98839.03;7393654;19;20542;-67
2021/12/27 10:47:22;;;;;;;7.07;4.03;;;;;;;11.49;98.30;98838.03;7393831;19;20326;-66
2021/12/27 10:50:02;;;;;;;7.45;3.75;;;;;;;11.50;98.32;98834.41;7391534;19;20013;-67
2021/12/27 10:52:36;;;;;;;472.75;21.05;;;;;;;11.53;98.29;98836.59;7394128;19;20523;-67
2021/12/27 10:55:05;;;;;;;7.28;4.13;;;;;;;11.56;98.55;98830.94;7393969;19;20367;-67
2021/12/27 10:57:33;;;;;;;8.65;4.25;;;;;;;11.57;98.67;98827.28;7393024;19;20006;-67
2021/12/27 11:00:07;;;;;;;9.13;5.75;;;;;;;11.56;98.64;98828.31;7394542;19;20660;-66
2021/12/27 11:02:34;;;;;;;7.93;3.92;;;;;;;11.57;98.92;98826.47;7394363;19;20006;-66
2021/12/27 11:05:08;;;;;;;7.35;4.30;;;;;;;11.58;98.95;98830.69;7396618;19;20339;-66
2021/12/27 11:07:36;;;;;;;7.78;2.47;;;;;;;11.59;98.84;98833.13;7391154;19;20010;-67
2021/12/27 11:10:04;;;;;;;27.48;5.20;;;;;;;11.59;98.87;98827.88;7393026;19;20011;-67
2021/12/27 11:12:32;;;;;;;6.43;2.65;;;;;;;11.63;99.24;98825.63;7395250;19;20011;-66
2021/12/27 11:15:00;;;;;;;4.30;1.73;;;;;;;11.64;98.88;98821.97;7393568;19;20038;-66
2021/12/27 11:17:28;;;;;;;7.10;1.85;;;;;;;11.61;98.92;98811.88;7390086;19;20352;-66
2021/12/27 11:19:55;;;;;;;5.20;1.58;;;;;;;11.64;98.80;98824.59;7393059;19;20014;-67
2021/12/27 11:22:23;;;;;;;4.70;1.27;;;;;;;11.66;98.99;98801.50;7393008;19;20034;-67
2021/12/27 11:24:50;;;;;;;3.83;2.53;;;;;;;11.69;98.91;98795.00;7392916;19;20115;-67
2021/12/27 11:27:18;;;;;;;159.48;8.68;;;;;;;11.67;98.99;98805.75;7393934;19;20023;-67
2021/12/27 11:29:52;;;;;;;8.00;1.80;;;;;;;11.72;99.02;98794.59;7390639;19;20007;-66
2021/12/27 11:32:48;;;;;;;4.85;3.38;;;;;;;11.73;99.04;98783.88;7393821;19;20018;-66
2021/12/27 11:35:16;;;;;;;26.98;5.75;;;;;;;11.74;98.90;98782.84;7390016;19;20018;-66
2021/12/27 11:37:43;;;;;;;4.80;2.47;;;;;;;11.77;98.79;98773.72;7388817;19;20014;-68
2021/12/27 11:40:13;;;;;;;3.72;1.90;;;;;;;11.78;98.53;98770.06;7388652;19;20030;-68
2021/12/27 11:42:47;;;;;;;5.25;2.80;;;;;;;11.78;98.74;98767.44;7390164;19;20014;-66
2021/12/27 11:45:35;;;;;;;19.20;9.55;;;;;;;11.80;99.09;98763.56;7390701;19;20030;-66